createdAt,value
2017-09-30T00:01:24.659Z,81.45
2017-09-30T00:03:50.929Z,82.31
2017-09-30T00:06:17.151Z,83.13
2017-09-30T00:08:43.377Z,84.08
2017-09-30T00:11:09.644Z,83.93
2017-09-30T00:13:36.006Z,84.87
2017-09-30T00:16:02.207Z,84.69
2017-09-30T00:18:28.464Z,84.59
2017-09-30T00:20:54.685Z,82.93
2017-09-30T00:23:20.892Z,82.52
2017-09-30T00:25:47.153Z,82.02
2017-09-30T00:28:13.371Z,82.10
2017-09-30T00:30:39.620Z,81.98
2017-09-30T00:33:05.916Z,83.34
2017-09-30T00:35:32.144Z,84.21
2017-09-30T00:37:58.379Z,85.08
2017-09-30T00:40:24.642Z,84.37
2017-09-30T00:42:50.872Z,84.64
2017-09-30T00:45:17.097Z,84.13
2017-09-30T00:47:43.372Z,84.17
2017-09-30T00:50:09.598Z,83.50
2017-09-30T00:52:35.818Z,82.87
2017-09-30T00:55:02.108Z,83.17
2017-09-30T00:57:28.340Z,82.94
2017-09-30T00:59:54.554Z,83.33
2017-09-30T01:02:20.828Z,83.05
2017-09-30T01:04:47.061Z,83.02
2017-09-30T01:07:13.300Z,83.79
2017-09-30T01:09:39.585Z,82.38
2017-09-30T01:12:05.825Z,83.13
2017-09-30T01:14:32.045Z,82.11
2017-09-30T01:16:58.312Z,82.65
2017-09-30T01:19:24.533Z,80.82
2017-09-30T01:21:50.758Z,80.90
2017-09-30T01:24:17.693Z,80.50
2017-09-30T01:26:43.908Z,76.60
2017-09-30T01:29:10.143Z,79.92
2017-09-30T01:31:36.415Z,77.14
2017-09-30T01:34:02.644Z,77.44
2017-09-30T01:36:28.877Z,76.82
2017-09-30T01:38:55.169Z,75.25
2017-09-30T01:41:21.391Z,75.41
2017-09-30T01:43:47.624Z,74.49
2017-09-30T01:46:13.904Z,75.68
2017-09-30T01:48:40.134Z,75.87
2017-09-30T01:51:06.367Z,76.80
2017-09-30T01:53:32.631Z,76.74
2017-09-30T01:55:58.859Z,77.47
2017-09-30T01:58:25.083Z,77.62
2017-09-30T02:00:51.349Z,78.88
2017-09-30T02:03:17.740Z,79.02
2017-09-30T02:05:43.975Z,77.80
2017-09-30T02:08:10.257Z,79.44
2017-09-30T02:10:36.501Z,78.20
2017-09-30T02:13:02.711Z,77.37
2017-09-30T02:15:29.013Z,73.90
2017-09-30T02:17:55.233Z,74.70
2017-09-30T02:20:21.454Z,75.40
2017-09-30T02:22:47.709Z,75.71
2017-09-30T02:25:13.956Z,74.67
2017-09-30T02:27:40.184Z,73.86
2017-09-30T02:30:06.465Z,73.58
2017-09-30T02:32:32.853Z,74.05
2017-09-30T02:34:59.075Z,73.20
2017-09-30T02:37:25.334Z,74.06
2017-09-30T02:39:51.559Z,73.74
2017-09-30T02:42:17.802Z,73.82
2017-09-30T02:44:44.075Z,73.16
2017-09-30T02:47:10.334Z,73.18
2017-09-30T02:49:36.557Z,74.34
2017-09-30T02:52:03.078Z,73.14
2017-09-30T02:54:29.467Z,73.37
2017-09-30T02:56:55.799Z,72.96
2017-09-30T02:59:22.091Z,72.03
2017-09-30T03:01:48.332Z,72.36
2017-09-30T03:04:14.589Z,69.09
2017-09-30T03:06:40.859Z,70.32
2017-09-30T03:09:07.097Z,69.11
2017-09-30T03:11:33.330Z,71.03
2017-09-30T03:13:59.613Z,70.25
2017-09-30T03:16:25.848Z,71.01
2017-09-30T03:18:52.122Z,71.50
2017-09-30T03:21:18.390Z,71.29
2017-09-30T03:23:44.622Z,69.67
2017-09-30T03:26:10.862Z,70.63
2017-09-30T03:28:37.140Z,71.33
2017-09-30T03:31:03.361Z,71.66
2017-09-30T03:33:29.588Z,71.12
2017-09-30T03:35:55.834Z,70.44
2017-09-30T03:38:22.064Z,70.26
2017-09-30T03:40:48.294Z,71.99
2017-09-30T03:43:14.569Z,70.85
2017-09-30T03:45:40.772Z,71.18
2017-09-30T03:48:07.005Z,70.66
2017-09-30T03:50:33.280Z,70.94
2017-09-30T03:52:59.504Z,70.19
2017-09-30T03:55:25.726Z,69.81
2017-09-30T03:57:51.984Z,70.38
2017-09-30T04:00:18.209Z,69.64
2017-09-30T04:02:44.439Z,69.57
2017-09-30T04:05:10.714Z,69.23
2017-09-30T04:07:36.962Z,70.16
2017-09-30T04:10:03.200Z,67.83
2017-09-30T04:12:29.472Z,68.85
2017-09-30T04:14:55.714Z,68.58
2017-09-30T04:17:21.943Z,67.74
2017-09-30T04:19:48.220Z,68.26
2017-09-30T04:22:14.460Z,66.86
2017-09-30T04:24:40.693Z,67.77
2017-09-30T04:27:07.011Z,68.31
2017-09-30T04:29:33.249Z,67.53
2017-09-30T04:31:59.469Z,66.15
2017-09-30T04:34:25.758Z,68.19
2017-09-30T04:36:51.983Z,67.07
2017-09-30T04:39:18.202Z,68.56
2017-09-30T04:41:44.457Z,67.33
2017-09-30T04:44:10.678Z,67.35
2017-09-30T04:46:36.916Z,69.18
2017-09-30T04:49:03.188Z,68.70
2017-09-30T04:51:29.415Z,66.39
2017-09-30T04:53:55.633Z,67.39
2017-09-30T04:56:21.908Z,66.81
2017-09-30T04:58:48.154Z,67.31
2017-09-30T05:01:14.392Z,66.85
2017-09-30T05:03:40.611Z,66.39
2017-09-30T05:06:06.892Z,68.82
2017-09-30T05:08:33.115Z,67.55
2017-09-30T05:10:59.340Z,68.00
2017-09-30T05:13:25.605Z,66.75
2017-09-30T05:15:51.870Z,66.64
2017-09-30T05:18:18.092Z,67.38
2017-09-30T05:20:44.363Z,67.15
2017-09-30T05:23:10.645Z,65.61
2017-09-30T05:25:36.881Z,66.23
2017-09-30T05:28:03.193Z,66.41
2017-09-30T05:30:29.431Z,64.36
2017-09-30T05:32:55.663Z,64.74
2017-09-30T05:35:21.938Z,64.93
2017-09-30T05:37:48.233Z,64.66
2017-09-30T05:40:14.456Z,64.29
2017-09-30T05:42:40.736Z,64.42
2017-09-30T05:45:06.976Z,64.50
2017-09-30T05:47:33.206Z,64.54
2017-09-30T05:49:59.469Z,64.34
2017-09-30T05:52:25.692Z,63.77
2017-09-30T05:54:52.007Z,64.47
2017-09-30T05:57:18.262Z,64.16
2017-09-30T05:59:44.487Z,62.60
2017-09-30T06:02:10.720Z,64.23
2017-09-30T06:04:37.047Z,64.39
2017-09-30T06:07:03.280Z,64.27
2017-09-30T06:09:29.512Z,63.94
2017-09-30T06:11:55.783Z,62.11
2017-09-30T06:14:22.021Z,60.31
2017-09-30T06:16:48.243Z,61.84
2017-09-30T06:19:14.511Z,63.36
2017-09-30T06:21:40.761Z,62.84
2017-09-30T06:24:06.984Z,62.28
2017-09-30T06:26:33.274Z,63.77
2017-09-30T06:28:59.511Z,62.91
2017-09-30T06:31:25.746Z,60.77
2017-09-30T06:33:52.086Z,61.45
2017-09-30T06:36:18.325Z,60.90
2017-09-30T06:38:44.744Z,62.30
2017-09-30T06:41:11.184Z,62.83
2017-09-30T06:43:37.395Z,59.43
2017-09-30T06:46:03.625Z,59.32
2017-09-30T06:48:30.058Z,59.82
2017-09-30T06:50:56.296Z,57.77
2017-09-30T06:53:22.514Z,56.78
2017-09-30T06:55:48.759Z,57.35
2017-09-30T06:58:14.990Z,56.99
2017-09-30T07:00:41.216Z,53.50
2017-09-30T07:03:07.447Z,54.00
2017-09-30T07:05:33.678Z,55.50
2017-09-30T07:08:00.114Z,56.56
2017-09-30T07:10:26.381Z,55.45
2017-09-30T07:12:52.612Z,57.16
2017-09-30T07:15:18.825Z,57.43
2017-09-30T07:17:45.080Z,57.21
2017-09-30T07:20:11.305Z,56.55
2017-09-30T07:22:37.536Z,56.22
2017-09-30T07:25:03.816Z,56.68
2017-09-30T07:27:30.073Z,57.76
2017-09-30T07:29:56.304Z,58.13
2017-09-30T07:32:22.658Z,57.74
2017-09-30T07:34:48.887Z,57.56
2017-09-30T07:37:15.130Z,55.15
2017-09-30T07:39:41.401Z,55.79
2017-09-30T07:42:07.639Z,53.40
2017-09-30T07:44:33.846Z,54.18
2017-09-30T07:47:00.117Z,54.17
2017-09-30T07:49:26.315Z,53.83
2017-09-30T07:51:52.558Z,53.41
2017-09-30T07:54:18.814Z,55.12
2017-09-30T07:56:45.043Z,52.89
2017-09-30T07:59:11.383Z,51.02
2017-09-30T08:01:37.675Z,50.73
2017-09-30T08:04:03.891Z,53.86
2017-09-30T08:06:30.116Z,52.79
2017-09-30T08:08:56.383Z,51.16
2017-09-30T08:11:22.601Z,51.21
2017-09-30T08:13:48.829Z,50.54
2017-09-30T08:16:15.119Z,50.66
2017-09-30T08:18:41.349Z,49.02
2017-09-30T08:21:07.579Z,49.39
2017-09-30T08:23:33.854Z,49.72
2017-09-30T08:26:00.085Z,50.58
2017-09-30T08:28:26.308Z,49.66
2017-09-30T08:30:52.595Z,50.84
2017-09-30T08:33:18.836Z,51.02
2017-09-30T08:35:45.061Z,51.09
2017-09-30T08:38:11.326Z,50.59
2017-09-30T08:40:37.549Z,51.60
2017-09-30T08:43:03.769Z,50.70
2017-09-30T08:45:30.008Z,49.53
2017-09-30T08:47:56.220Z,51.01
2017-09-30T08:50:22.447Z,49.01
2017-09-30T08:52:48.712Z,47.20
2017-09-30T08:55:14.987Z,47.99
2017-09-30T08:57:41.230Z,47.21
2017-09-30T09:00:07.501Z,48.74
2017-09-30T09:02:33.728Z,48.14
2017-09-30T09:04:59.944Z,48.24
2017-09-30T09:07:26.218Z,45.45
2017-09-30T09:09:52.428Z,46.61
2017-09-30T09:12:18.652Z,46.29
2017-09-30T09:14:44.919Z,45.97
2017-09-30T09:17:11.150Z,46.36
2017-09-30T09:19:37.380Z,45.88
2017-09-30T09:22:03.652Z,46.69
2017-09-30T09:24:29.845Z,45.74
2017-09-30T09:26:56.096Z,44.92
2017-09-30T09:29:22.355Z,43.80
2017-09-30T09:31:48.579Z,43.34
2017-09-30T09:34:14.852Z,43.82
2017-09-30T09:36:41.136Z,42.92
2017-09-30T09:39:07.380Z,45.31
2017-09-30T09:41:33.634Z,45.76
2017-09-30T09:43:59.931Z,43.38
2017-09-30T09:46:26.150Z,43.98
2017-09-30T09:48:52.392Z,44.43
2017-09-30T09:51:18.682Z,44.41
2017-09-30T09:53:44.910Z,45.81
2017-09-30T09:56:11.125Z,45.93
2017-09-30T09:58:37.390Z,44.70
2017-09-30T10:01:03.633Z,44.50
2017-09-30T10:03:29.851Z,44.58
2017-09-30T10:05:56.137Z,43.96
2017-09-30T10:08:22.361Z,44.25
2017-09-30T10:10:48.720Z,44.35
2017-09-30T10:13:14.971Z,44.00
2017-09-30T10:15:41.198Z,47.03
2017-09-30T10:18:07.431Z,47.20
2017-09-30T10:20:33.739Z,43.55
2017-09-30T10:22:59.960Z,43.07
2017-09-30T10:25:26.214Z,45.63
2017-09-30T10:27:52.512Z,44.61
2017-09-30T10:30:18.741Z,42.95
2017-09-30T10:32:45.052Z,41.33
2017-09-30T10:35:11.368Z,40.43
2017-09-30T10:37:37.621Z,39.74
2017-09-30T10:40:03.849Z,38.88
2017-09-30T10:42:30.169Z,40.31
2017-09-30T10:44:56.404Z,40.83
2017-09-30T10:47:22.683Z,38.98
2017-09-30T10:49:49.008Z,39.52
2017-09-30T10:52:15.264Z,38.25
2017-09-30T10:54:41.481Z,38.61
2017-09-30T10:57:07.759Z,37.42
2017-09-30T10:59:33.979Z,38.76
2017-09-30T11:02:00.210Z,37.95
2017-09-30T11:04:26.485Z,37.76
2017-09-30T11:06:52.721Z,40.46
2017-09-30T11:09:18.956Z,38.90
2017-09-30T11:11:45.228Z,39.34
2017-09-30T11:14:11.463Z,40.71
2017-09-30T11:16:37.680Z,41.83
2017-09-30T11:19:03.941Z,41.33
2017-09-30T11:21:30.346Z,42.21
2017-09-30T11:23:56.561Z,42.27
2017-09-30T11:26:22.813Z,41.42
2017-09-30T11:28:49.029Z,42.07
2017-09-30T11:31:15.264Z,44.07
2017-09-30T11:33:41.532Z,46.71
2017-09-30T11:36:07.757Z,46.42
2017-09-30T11:38:33.992Z,43.96
2017-09-30T11:41:00.258Z,45.12
2017-09-30T11:43:26.480Z,43.47
2017-09-30T11:45:52.703Z,43.74
2017-09-30T11:48:18.981Z,45.69
2017-09-30T11:50:45.198Z,47.54
2017-09-30T11:53:11.415Z,47.96
2017-09-30T11:55:37.684Z,51.36
2017-09-30T11:58:03.919Z,50.45
2017-09-30T12:00:30.160Z,49.28
2017-09-30T12:02:56.444Z,49.20
2017-09-30T12:05:22.660Z,51.63
2017-09-30T12:07:48.888Z,53.15
2017-09-30T12:10:15.175Z,51.63
2017-09-30T12:12:41.405Z,51.24
2017-09-30T12:15:07.636Z,49.56
2017-09-30T12:17:33.905Z,48.95
2017-09-30T12:20:00.126Z,48.54
2017-09-30T12:22:26.354Z,48.86
2017-09-30T12:24:52.619Z,52.01
2017-09-30T12:27:18.844Z,50.48
2017-09-30T12:29:45.052Z,48.03
2017-09-30T12:32:11.312Z,48.76
2017-09-30T12:34:37.540Z,49.36
2017-09-30T12:37:03.753Z,47.01
2017-09-30T12:39:30.023Z,47.32
2017-09-30T12:41:56.248Z,50.52
2017-09-30T12:44:22.471Z,47.19
2017-09-30T12:46:48.682Z,46.96
2017-09-30T12:49:15.175Z,48.82
2017-09-30T12:51:41.394Z,48.16
2017-09-30T12:54:07.623Z,48.31
2017-09-30T12:56:33.862Z,48.42
2017-09-30T12:59:00.091Z,48.94
2017-09-30T13:01:26.362Z,49.22
2017-09-30T13:03:52.611Z,50.66
2017-09-30T13:06:18.917Z,51.26
2017-09-30T13:08:45.196Z,53.10
2017-09-30T13:11:11.433Z,52.54
2017-09-30T13:13:38.593Z,54.00
2017-09-30T13:16:04.874Z,53.04
2017-09-30T13:18:31.124Z,54.27
2017-09-30T13:20:57.404Z,57.69
2017-09-30T13:23:23.640Z,61.41
2017-09-30T13:25:49.897Z,59.70
2017-09-30T13:28:16.837Z,58.33
2017-09-30T13:30:43.133Z,60.61
2017-09-30T13:33:09.382Z,59.07
2017-09-30T13:35:35.641Z,66.79
2017-09-30T13:38:01.875Z,66.06
2017-09-30T13:40:28.110Z,62.79
2017-09-30T13:42:54.369Z,61.10
2017-09-30T13:45:20.600Z,63.00
2017-09-30T13:47:46.838Z,64.80
2017-09-30T13:50:13.113Z,67.62
2017-09-30T13:52:39.346Z,67.56
2017-09-30T13:55:05.573Z,68.84
2017-09-30T13:57:31.831Z,68.65
2017-09-30T13:59:58.064Z,70.13
2017-09-30T14:02:24.302Z,76.16
2017-09-30T14:04:50.596Z,76.02
2017-09-30T14:07:16.819Z,79.77
2017-09-30T14:09:43.052Z,81.04
2017-09-30T14:12:09.310Z,78.33
2017-09-30T14:14:35.562Z,78.99
2017-09-30T14:17:01.785Z,71.76
2017-09-30T14:19:28.053Z,72.32
2017-09-30T14:21:54.278Z,75.20
2017-09-30T14:24:20.487Z,80.25
2017-09-30T14:26:46.736Z,80.73
2017-09-30T14:29:12.964Z,82.12
2017-09-30T14:31:39.187Z,82.22
2017-09-30T14:34:05.458Z,82.74
2017-09-30T14:36:31.683Z,83.09
2017-09-30T14:38:57.915Z,84.16
2017-09-30T14:41:24.195Z,82.78
2017-09-30T14:43:50.405Z,82.26
2017-09-30T14:46:16.628Z,78.80
2017-09-30T14:48:42.876Z,82.86
2017-09-30T14:51:09.097Z,84.03
2017-09-30T14:53:35.320Z,85.30
2017-09-30T14:56:01.863Z,85.24
2017-09-30T14:58:28.093Z,86.92
2017-09-30T15:00:54.313Z,85.06
2017-09-30T15:03:20.589Z,86.33
2017-09-30T15:05:46.813Z,86.52
2017-09-30T15:08:13.052Z,87.25
2017-09-30T15:10:39.331Z,88.54
2017-09-30T15:13:05.564Z,87.99
2017-09-30T15:15:31.802Z,88.34
2017-09-30T15:17:58.069Z,88.43
2017-09-30T15:20:24.320Z,87.92
2017-09-30T15:22:50.533Z,87.74
2017-09-30T15:25:16.786Z,88.33
2017-09-30T15:27:43.029Z,87.66
2017-09-30T15:30:09.257Z,87.57
2017-09-30T15:32:35.536Z,87.90
2017-09-30T15:35:01.756Z,88.73
2017-09-30T15:37:27.979Z,89.26
2017-09-30T15:39:54.291Z,89.78
2017-09-30T15:42:20.520Z,89.53
2017-09-30T15:44:46.732Z,89.66
2017-09-30T15:47:13.003Z,89.91
2017-09-30T15:49:39.234Z,90.19
2017-09-30T15:52:05.452Z,89.78
2017-09-30T15:54:31.809Z,90.58
2017-09-30T15:56:58.296Z,90.76
2017-09-30T15:59:24.665Z,90.30
2017-09-30T16:01:51.024Z,90.39
2017-09-30T16:04:17.239Z,90.43
2017-09-30T16:06:43.457Z,90.41
2017-09-30T16:09:09.740Z,90.77
2017-09-30T16:14:07.361Z,90.38
2017-09-30T16:16:33.632Z,90.46
2017-09-30T16:18:59.887Z,90.52
2017-09-30T16:21:26.303Z,90.00
2017-09-30T16:23:52.565Z,90.36
2017-09-30T16:26:18.784Z,91.03
2017-09-30T16:28:45.012Z,91.40
2017-09-30T16:31:11.279Z,91.08
2017-09-30T16:33:37.668Z,90.52
2017-09-30T16:36:03.889Z,90.76
2017-09-30T16:38:30.158Z,90.53
2017-09-30T16:40:56.397Z,90.61
2017-09-30T16:43:22.644Z,90.70
2017-09-30T16:45:48.924Z,90.64
2017-09-30T16:48:15.170Z,90.74
2017-09-30T16:50:41.520Z,90.53
2017-09-30T16:53:07.786Z,89.84
2017-09-30T16:55:34.014Z,90.61
2017-09-30T16:58:00.253Z,90.52
2017-09-30T17:00:26.525Z,90.44
2017-09-30T17:02:52.730Z,90.58
2017-09-30T17:05:18.955Z,90.88
2017-09-30T17:07:45.208Z,90.71
2017-09-30T17:10:11.423Z,90.56
2017-09-30T17:12:37.634Z,90.52
2017-09-30T17:15:03.891Z,91.02
2017-09-30T17:17:30.099Z,90.58
2017-09-30T17:19:56.297Z,90.71
2017-09-30T17:22:22.555Z,90.67
2017-09-30T17:24:48.769Z,90.75
2017-09-30T17:27:14.993Z,91.09
2017-09-30T17:29:41.255Z,90.58
2017-09-30T17:32:07.469Z,90.43
2017-09-30T17:34:33.697Z,90.39
2017-09-30T17:36:59.994Z,90.61
2017-09-30T17:39:26.244Z,90.72
2017-09-30T17:41:52.469Z,91.12
2017-09-30T17:44:18.749Z,91.40
2017-09-30T17:46:44.958Z,91.93
2017-09-30T17:49:11.188Z,91.98
2017-09-30T17:51:37.454Z,91.99
2017-09-30T17:54:03.678Z,91.04
2017-09-30T17:56:30.020Z,90.46
2017-09-30T17:58:56.279Z,90.62
2017-09-30T18:01:22.491Z,89.88
2017-09-30T18:03:48.727Z,89.86
2017-09-30T18:06:15.112Z,90.02
2017-09-30T18:08:41.341Z,90.17
2017-09-30T18:11:07.559Z,90.76
2017-09-30T18:13:33.807Z,89.52
2017-09-30T18:16:00.071Z,90.29
2017-09-30T18:18:26.518Z,90.53
2017-09-30T18:20:52.774Z,90.49
2017-09-30T18:23:18.999Z,89.25
2017-09-30T18:25:45.212Z,90.58
2017-09-30T18:28:11.465Z,90.63
2017-09-30T18:30:37.696Z,90.81
2017-09-30T18:33:04.053Z,92.67
2017-09-30T18:35:30.313Z,91.65
2017-09-30T18:37:56.518Z,91.83
2017-09-30T18:40:22.711Z,91.92
2017-09-30T18:42:48.959Z,91.01
2017-09-30T18:45:15.167Z,91.20
2017-09-30T18:47:41.392Z,91.15
2017-09-30T18:50:07.640Z,90.32
2017-09-30T18:52:33.848Z,90.83
2017-09-30T18:55:00.101Z,90.73
2017-09-30T18:57:26.316Z,90.80
2017-09-30T18:59:52.527Z,91.28
2017-09-30T19:02:18.789Z,91.55
2017-09-30T19:04:44.998Z,91.55
2017-09-30T19:07:11.200Z,91.91
2017-09-30T19:09:37.535Z,91.87
2017-09-30T19:12:03.767Z,92.00
2017-09-30T19:14:30.003Z,92.15
2017-09-30T19:16:56.300Z,92.00
2017-09-30T19:19:22.532Z,91.96
2017-09-30T19:21:48.778Z,91.62
2017-09-30T19:24:15.058Z,91.35
2017-09-30T19:26:41.415Z,91.17
2017-09-30T19:29:07.649Z,91.72
2017-09-30T19:31:33.896Z,92.19
2017-09-30T19:34:00.106Z,92.74
2017-09-30T19:36:26.316Z,93.25
2017-09-30T19:38:52.587Z,93.56
2017-09-30T19:41:18.819Z,93.49
2017-09-30T19:43:45.052Z,93.52
2017-09-30T19:46:11.297Z,93.53
2017-09-30T19:48:37.691Z,93.59
2017-09-30T19:51:03.917Z,93.45
2017-09-30T19:53:30.179Z,93.44
2017-09-30T19:55:56.407Z,93.53
2017-09-30T19:58:22.685Z,93.71
2017-09-30T20:00:48.912Z,93.42
2017-09-30T20:03:15.136Z,93.40
2017-09-30T20:05:41.572Z,93.27
2017-09-30T20:08:07.790Z,92.96
2017-09-30T20:10:34.015Z,92.95
2017-09-30T20:13:00.258Z,93.08
2017-09-30T20:15:26.488Z,93.12
2017-09-30T20:17:52.738Z,93.13
2017-09-30T20:20:19.008Z,92.67
2017-09-30T20:22:45.231Z,92.83
2017-09-30T20:25:11.513Z,92.73
2017-09-30T20:27:37.823Z,92.77
2017-09-30T20:30:04.061Z,92.60
2017-09-30T20:32:30.284Z,92.55
2017-09-30T20:34:56.558Z,93.19
2017-09-30T20:37:22.776Z,93.30
2017-09-30T20:39:49.014Z,92.90
2017-09-30T20:42:15.265Z,92.69
2017-09-30T20:44:41.490Z,93.15
2017-09-30T20:47:07.723Z,92.81
2017-09-30T20:49:34.010Z,92.68
2017-09-30T20:52:00.246Z,92.54
2017-09-30T20:54:26.446Z,92.87
2017-09-30T20:56:52.711Z,93.45
2017-09-30T20:59:18.936Z,93.75
2017-09-30T21:01:45.135Z,93.66
2017-09-30T21:04:11.414Z,93.44
2017-09-30T21:06:37.637Z,92.61
2017-09-30T21:09:03.848Z,92.96
2017-09-30T21:11:30.103Z,93.36
2017-09-30T21:13:56.326Z,93.52
2017-09-30T21:16:22.544Z,93.59
2017-09-30T21:18:48.794Z,93.63
2017-09-30T21:21:15.015Z,93.89
2017-09-30T21:23:41.232Z,93.63
2017-09-30T21:26:07.495Z,93.66
2017-09-30T21:28:33.695Z,93.95
2017-09-30T21:30:59.903Z,93.91
2017-09-30T21:33:26.169Z,94.34
2017-09-30T21:35:52.392Z,93.93
2017-09-30T21:38:18.608Z,94.17
2017-09-30T21:40:44.870Z,94.28
2017-09-30T21:43:11.100Z,94.31
2017-09-30T21:45:37.315Z,94.13
2017-09-30T21:48:03.560Z,94.24
2017-09-30T21:50:29.783Z,94.19
2017-09-30T21:52:55.993Z,94.11
2017-09-30T21:55:22.259Z,94.25
2017-09-30T21:57:48.603Z,94.02
2017-09-30T22:00:14.826Z,93.80
2017-09-30T22:02:41.067Z,94.10
2017-09-30T22:05:07.297Z,94.14
2017-09-30T22:07:33.507Z,94.30
2017-09-30T22:09:59.759Z,94.24
2017-09-30T22:12:25.977Z,94.26
2017-09-30T22:14:52.205Z,94.63
2017-09-30T22:17:18.649Z,94.86
2017-09-30T22:19:44.877Z,94.51
2017-09-30T22:22:11.115Z,94.14
2017-09-30T22:24:37.379Z,94.15
2017-09-30T22:27:03.597Z,94.06
2017-09-30T22:29:29.818Z,94.35
2017-09-30T22:31:56.066Z,94.47
2017-09-30T22:34:22.276Z,94.14
2017-09-30T22:36:48.494Z,94.27
2017-09-30T22:39:14.759Z,94.29
2017-09-30T22:41:40.981Z,94.29
2017-09-30T22:44:07.277Z,94.14
2017-09-30T22:46:33.534Z,94.06
2017-09-30T22:48:59.759Z,94.01
2017-09-30T22:51:25.987Z,94.62
2017-09-30T22:53:52.240Z,94.40
2017-09-30T22:56:18.486Z,94.47
2017-09-30T22:58:44.709Z,94.28
2017-09-30T23:01:10.954Z,93.85
2017-09-30T23:03:37.182Z,93.90
2017-09-30T23:06:03.409Z,94.39
2017-09-30T23:08:29.676Z,94.41
2017-09-30T23:10:55.885Z,94.39
2017-09-30T23:13:22.096Z,94.18
2017-09-30T23:15:48.368Z,94.17
2017-09-30T23:18:14.600Z,93.92
2017-09-30T23:20:40.823Z,93.74
2017-09-30T23:23:07.076Z,93.70
2017-09-30T23:25:33.301Z,93.37
2017-09-30T23:27:59.537Z,93.64
2017-09-30T23:30:25.795Z,93.86
2017-09-30T23:32:52.126Z,93.95
2017-09-30T23:35:18.347Z,93.94
2017-09-30T23:37:44.574Z,93.73
2017-09-30T23:40:10.801Z,93.98
2017-09-30T23:42:37.038Z,93.65
2017-09-30T23:45:03.300Z,94.08
2017-09-30T23:47:29.529Z,94.88
2017-09-30T23:49:55.750Z,94.44
2017-09-30T23:52:22.013Z,94.35
2017-09-30T23:54:48.222Z,94.52
2017-09-30T23:57:14.438Z,94.17
2017-09-30T23:59:40.689Z,94.32
